Terminal Aerodrome Forecast
Issued by NWS

Home | Current Version | Previous Version | Text Only | Print | Product List | Glossary On
Versions: 1 2 3 4 5 6 7 8 9 10 11 12 13 14 15 16 17
000
FTAK31 PAJN 301159 AAA
TAFAJN
TAF AMD
PAJN 301159Z 3012/3112 11010KT P6SM -SHRA FEW005 BKN040 OVC050
      TEMPO 3012/3016 13015G25KT 5SM BR BKN005 OVC040
     FM301600 08010KT P6SM -SHRA SCT020 OVC035
     FM302000 12010KT P6SM -SHRA SCT030 OVC050
     FM310300 10012KT P6SM -SHRA BKN025 OVC040
     FM310900 10008KT P6SM -SHRA SCT030 OVC050=

USA.gov is the U.S. government's official web portal to all federal, state and local government web resources and services.